sensor_id;sensor_type;location;lat;lon;timestamp;P1;durP1;ratioP1;P2;durP2;ratioP2
10945;SDS011;5525;42.648;23.368;2024-02-26T00:01:50;9.93;;;6.95;;
10945;SDS011;5525;42.648;23.368;2024-02-26T00:04:17;9.00;;;6.65;;
10945;SDS011;5525;42.648;23.368;2024-02-26T00:06:44;9.38;;;6.45;;
10945;SDS011;5525;42.648;23.368;2024-02-26T00:09:11;8.40;;;6.15;;
10945;SDS011;5525;42.648;23.368;2024-02-26T00:11:37;8.77;;;6.15;;
10945;SDS011;5525;42.648;23.368;2024-02-26T00:14:04;9.55;;;7.07;;
10945;SDS011;5525;42.648;23.368;2024-02-26T00:16:31;11.95;;;8.13;;
10945;SDS011;5525;42.648;23.368;2024-02-26T00:18:59;12.95;;;8.68;;
10945;SDS011;5525;42.648;23.368;2024-02-26T00:21:28;11.48;;;9.10;;
10945;SDS011;5525;42.648;23.368;2024-02-26T00:23:54;13.07;;;9.20;;
10945;SDS011;5525;42.648;23.368;2024-02-26T00:26:21;15.85;;;9.48;;
10945;SDS011;5525;42.648;23.368;2024-02-26T00:28:48;10.63;;;8.20;;
10945;SDS011;5525;42.648;23.368;2024-02-26T00:31:15;12.57;;;8.52;;
10945;SDS011;5525;42.648;23.368;2024-02-26T00:33:42;11.13;;;8.07;;
10945;SDS011;5525;42.648;23.368;2024-02-26T00:36:10;9.85;;;7.75;;
10945;SDS011;5525;42.648;23.368;2024-02-26T00:38:37;12.63;;;8.27;;
10945;SDS011;5525;42.648;23.368;2024-02-26T00:41:04;12.02;;;8.93;;
10945;SDS011;5525;42.648;23.368;2024-02-26T00:43:31;11.40;;;8.85;;
10945;SDS011;5525;42.648;23.368;2024-02-26T00:45:58;13.77;;;8.50;;
10945;SDS011;5525;42.648;23.368;2024-02-26T00:48:25;12.07;;;8.32;;
10945;SDS011;5525;42.648;23.368;2024-02-26T00:50:52;12.00;;;8.75;;
10945;SDS011;5525;42.648;23.368;2024-02-26T00:53:20;12.32;;;8.57;;
10945;SDS011;5525;42.648;23.368;2024-02-26T00:55:47;14.23;;;9.10;;
10945;SDS011;5525;42.648;23.368;2024-02-26T00:58:14;13.55;;;8.52;;
10945;SDS011;5525;42.648;23.368;2024-02-26T01:00:41;12.13;;;8.60;;
10945;SDS011;5525;42.648;23.368;2024-02-26T01:03:08;12.15;;;8.90;;
10945;SDS011;5525;42.648;23.368;2024-02-26T01:05:35;12.15;;;8.68;;
10945;SDS011;5525;42.648;23.368;2024-02-26T01:08:03;14.05;;;9.00;;
10945;SDS011;5525;42.648;23.368;2024-02-26T01:10:32;10.35;;;8.48;;
10945;SDS011;5525;42.648;23.368;2024-02-26T01:12:59;12.20;;;8.93;;
10945;SDS011;5525;42.648;23.368;2024-02-26T01:15:26;11.65;;;8.88;;
10945;SDS011;5525;42.648;23.368;2024-02-26T01:17:52;10.32;;;8.13;;
10945;SDS011;5525;42.648;23.368;2024-02-26T01:20:19;10.25;;;8.55;;
10945;SDS011;5525;42.648;23.368;2024-02-26T01:22:46;10.25;;;8.23;;
10945;SDS011;5525;42.648;23.368;2024-02-26T01:25:13;12.25;;;8.52;;
10945;SDS011;5525;42.648;23.368;2024-02-26T01:27:42;13.00;;;8.43;;
10945;SDS011;5525;42.648;23.368;2024-02-26T01:30:09;10.98;;;8.07;;
10945;SDS011;5525;42.648;23.368;2024-02-26T01:32:36;11.65;;;8.52;;
10945;SDS011;5525;42.648;23.368;2024-02-26T01:35:03;11.38;;;9.25;;
10945;SDS011;5525;42.648;23.368;2024-02-26T01:37:32;13.38;;;9.82;;
10945;SDS011;5525;42.648;23.368;2024-02-26T01:39:59;13.50;;;8.82;;
10945;SDS011;5525;42.648;23.368;2024-02-26T01:42:29;14.05;;;10.77;;
10945;SDS011;5525;42.648;23.368;2024-02-26T01:44:57;13.82;;;11.65;;
10945;SDS011;5525;42.648;23.368;2024-02-26T01:47:24;14.15;;;10.88;;
10945;SDS011;5525;42.648;23.368;2024-02-26T01:49:52;14.35;;;11.05;;
10945;SDS011;5525;42.648;23.368;2024-02-26T01:52:20;14.95;;;11.00;;
10945;SDS011;5525;42.648;23.368;2024-02-26T01:54:47;14.63;;;11.30;;
10945;SDS011;5525;42.648;23.368;2024-02-26T01:57:15;17.42;;;11.90;;
10945;SDS011;5525;42.648;23.368;2024-02-26T01:59:42;15.60;;;11.43;;
10945;SDS011;5525;42.648;23.368;2024-02-26T02:02:11;17.38;;;12.25;;
10945;SDS011;5525;42.648;23.368;2024-02-26T02:04:39;20.05;;;13.25;;
10945;SDS011;5525;42.648;23.368;2024-02-26T02:07:06;20.30;;;12.80;;
10945;SDS011;5525;42.648;23.368;2024-02-26T02:09:33;17.98;;;13.00;;
10945;SDS011;5525;42.648;23.368;2024-02-26T02:12:00;18.02;;;12.90;;
10945;SDS011;5525;42.648;23.368;2024-02-26T02:14:26;17.85;;;12.73;;
10945;SDS011;5525;42.648;23.368;2024-02-26T02:16:53;17.13;;;12.65;;
10945;SDS011;5525;42.648;23.368;2024-02-26T02:19:22;16.95;;;13.52;;
10945;SDS011;5525;42.648;23.368;2024-02-26T02:21:50;19.55;;;13.10;;
10945;SDS011;5525;42.648;23.368;2024-02-26T02:24:16;16.17;;;12.65;;
10945;SDS011;5525;42.648;23.368;2024-02-26T02:26:43;18.38;;;12.93;;
10945;SDS011;5525;42.648;23.368;2024-02-26T02:29:10;15.38;;;12.65;;
10945;SDS011;5525;42.648;23.368;2024-02-26T02:31:38;17.90;;;12.43;;
10945;SDS011;5525;42.648;23.368;2024-02-26T02:34:05;19.10;;;12.98;;
10945;SDS011;5525;42.648;23.368;2024-02-26T02:36:32;17.73;;;12.85;;
10945;SDS011;5525;42.648;23.368;2024-02-26T02:39:01;15.77;;;13.18;;
10945;SDS011;5525;42.648;23.368;2024-02-26T02:41:28;18.85;;;13.48;;
10945;SDS011;5525;42.648;23.368;2024-02-26T02:43:55;17.55;;;13.35;;
10945;SDS011;5525;42.648;23.368;2024-02-26T02:46:22;17.85;;;13.68;;
10945;SDS011;5525;42.648;23.368;2024-02-26T02:48:49;17.85;;;13.77;;
10945;SDS011;5525;42.648;23.368;2024-02-26T02:51:16;17.85;;;13.30;;
10945;SDS011;5525;42.648;23.368;2024-02-26T02:53:43;18.10;;;13.38;;
10945;SDS011;5525;42.648;23.368;2024-02-26T02:56:11;17.88;;;12.38;;
10945;SDS011;5525;42.648;23.368;2024-02-26T02:58:37;17.70;;;12.43;;
10945;SDS011;5525;42.648;23.368;2024-02-26T03:01:04;11.90;;;10.23;;
10945;SDS011;5525;42.648;23.368;2024-02-26T03:03:31;13.88;;;9.82;;
10945;SDS011;5525;42.648;23.368;2024-02-26T03:05:58;14.18;;;10.55;;
10945;SDS011;5525;42.648;23.368;2024-02-26T03:08:24;16.20;;;11.45;;
10945;SDS011;5525;42.648;23.368;2024-02-26T03:10:51;18.48;;;13.25;;
10945;SDS011;5525;42.648;23.368;2024-02-26T03:13:19;19.92;;;13.57;;
10945;SDS011;5525;42.648;23.368;2024-02-26T03:15:46;18.55;;;12.68;;
10945;SDS011;5525;42.648;23.368;2024-02-26T03:18:13;20.90;;;13.38;;
10945;SDS011;5525;42.648;23.368;2024-02-26T03:20:40;18.40;;;12.57;;
10945;SDS011;5525;42.648;23.368;2024-02-26T03:23:07;20.17;;;13.02;;
10945;SDS011;5525;42.648;23.368;2024-02-26T03:25:37;19.38;;;12.68;;
10945;SDS011;5525;42.648;23.368;2024-02-26T03:28:04;20.73;;;13.35;;
10945;SDS011;5525;42.648;23.368;2024-02-26T03:30:32;16.80;;;13.18;;
10945;SDS011;5525;42.648;23.368;2024-02-26T03:32:59;16.75;;;12.52;;
10945;SDS011;5525;42.648;23.368;2024-02-26T03:35:26;18.70;;;13.23;;
10945;SDS011;5525;42.648;23.368;2024-02-26T03:37:53;16.48;;;12.68;;
10945;SDS011;5525;42.648;23.368;2024-02-26T03:40:20;18.85;;;13.63;;
10945;SDS011;5525;42.648;23.368;2024-02-26T03:42:46;19.20;;;13.50;;
10945;SDS011;5525;42.648;23.368;2024-02-26T03:45:13;16.30;;;12.48;;
10945;SDS011;5525;42.648;23.368;2024-02-26T03:47:41;19.48;;;12.93;;
10945;SDS011;5525;42.648;23.368;2024-02-26T03:50:08;17.15;;;12.45;;
10945;SDS011;5525;42.648;23.368;2024-02-26T03:52:35;18.20;;;13.88;;
10945;SDS011;5525;42.648;23.368;2024-02-26T03:55:02;16.58;;;12.85;;
10945;SDS011;5525;42.648;23.368;2024-02-26T03:57:29;19.77;;;13.77;;
10945;SDS011;5525;42.648;23.368;2024-02-26T03:59:56;17.65;;;13.02;;
10945;SDS011;5525;42.648;23.368;2024-02-26T04:02:23;19.55;;;13.00;;
10945;SDS011;5525;42.648;23.368;2024-02-26T04:04:52;17.52;;;13.50;;
10945;SDS011;5525;42.648;23.368;2024-02-26T04:07:18;17.48;;;13.45;;
10945;SDS011;5525;42.648;23.368;2024-02-26T04:09:45;18.90;;;13.20;;
10945;SDS011;5525;42.648;23.368;2024-02-26T04:12:12;19.38;;;13.73;;
10945;SDS011;5525;42.648;23.368;2024-02-26T04:14:39;21.00;;;13.75;;
10945;SDS011;5525;42.648;23.368;2024-02-26T04:17:06;21.33;;;13.48;;
10945;SDS011;5525;42.648;23.368;2024-02-26T04:19:33;15.55;;;11.82;;
10945;SDS011;5525;42.648;23.368;2024-02-26T04:22:01;14.93;;;10.80;;
10945;SDS011;5525;42.648;23.368;2024-02-26T04:24:28;14.30;;;11.25;;
10945;SDS011;5525;42.648;23.368;2024-02-26T04:26:54;17.40;;;11.48;;
10945;SDS011;5525;42.648;23.368;2024-02-26T04:29:21;12.82;;;9.88;;
10945;SDS011;5525;42.648;23.368;2024-02-26T04:31:48;14.98;;;10.93;;
10945;SDS011;5525;42.648;23.368;2024-02-26T04:34:14;16.23;;;10.27;;
10945;SDS011;5525;42.648;23.368;2024-02-26T04:36:41;12.88;;;10.05;;
10945;SDS011;5525;42.648;23.368;2024-02-26T04:39:10;13.15;;;10.25;;
10945;SDS011;5525;42.648;23.368;2024-02-26T04:41:37;12.00;;;9.15;;
10945;SDS011;5525;42.648;23.368;2024-02-26T04:44:04;12.30;;;8.80;;
10945;SDS011;5525;42.648;23.368;2024-02-26T04:46:31;11.10;;;8.45;;
10945;SDS011;5525;42.648;23.368;2024-02-26T04:48:58;12.77;;;8.80;;
10945;SDS011;5525;42.648;23.368;2024-02-26T04:51:24;11.00;;;8.90;;
10945;SDS011;5525;42.648;23.368;2024-02-26T04:53:51;13.65;;;8.70;;
10945;SDS011;5525;42.648;23.368;2024-02-26T04:56:21;12.20;;;9.25;;
10945;SDS011;5525;42.648;23.368;2024-02-26T04:58:48;12.50;;;9.15;;
10945;SDS011;5525;42.648;23.368;2024-02-26T05:01:15;13.48;;;9.55;;
10945;SDS011;5525;42.648;23.368;2024-02-26T05:03:42;12.00;;;9.50;;
10945;SDS011;5525;42.648;23.368;2024-02-26T05:06:09;12.75;;;9.25;;
10945;SDS011;5525;42.648;23.368;2024-02-26T05:08:36;14.73;;;10.85;;
10945;SDS011;5525;42.648;23.368;2024-02-26T05:11:03;15.70;;;10.65;;
10945;SDS011;5525;42.648;23.368;2024-02-26T05:13:32;14.05;;;10.73;;
10945;SDS011;5525;42.648;23.368;2024-02-26T05:15:59;15.27;;;11.02;;
10945;SDS011;5525;42.648;23.368;2024-02-26T05:18:27;14.32;;;11.35;;
10945;SDS011;5525;42.648;23.368;2024-02-26T05:20:54;18.98;;;12.50;;
10945;SDS011;5525;42.648;23.368;2024-02-26T05:23:21;18.08;;;13.40;;
10945;SDS011;5525;42.648;23.368;2024-02-26T05:25:48;19.83;;;13.23;;
10945;SDS011;5525;42.648;23.368;2024-02-26T05:28:15;20.05;;;14.07;;
10945;SDS011;5525;42.648;23.368;2024-02-26T05:30:44;17.85;;;12.90;;
10945;SDS011;5525;42.648;23.368;2024-02-26T05:33:11;19.95;;;13.57;;
10945;SDS011;5525;42.648;23.368;2024-02-26T05:35:38;17.70;;;13.35;;
10945;SDS011;5525;42.648;23.368;2024-02-26T05:38:06;18.73;;;13.52;;
10945;SDS011;5525;42.648;23.368;2024-02-26T05:40:33;21.50;;;14.27;;
10945;SDS011;5525;42.648;23.368;2024-02-26T05:43:00;19.73;;;13.93;;
10945;SDS011;5525;42.648;23.368;2024-02-26T05:45:27;21.17;;;14.30;;
10945;SDS011;5525;42.648;23.368;2024-02-26T05:47:55;20.88;;;13.90;;
10945;SDS011;5525;42.648;23.368;2024-02-26T05:50:22;20.00;;;14.52;;
10945;SDS011;5525;42.648;23.368;2024-02-26T05:52:48;18.40;;;13.80;;
10945;SDS011;5525;42.648;23.368;2024-02-26T05:55:15;19.52;;;13.57;;
10945;SDS011;5525;42.648;23.368;2024-02-26T05:57:42;21.85;;;14.02;;
10945;SDS011;5525;42.648;23.368;2024-02-26T06:00:09;20.85;;;13.93;;
10945;SDS011;5525;42.648;23.368;2024-02-26T06:02:38;18.25;;;13.85;;
10945;SDS011;5525;42.648;23.368;2024-02-26T06:05:06;17.00;;;13.10;;
10945;SDS011;5525;42.648;23.368;2024-02-26T06:07:34;18.55;;;13.18;;
10945;SDS011;5525;42.648;23.368;2024-02-26T06:10:01;18.95;;;14.07;;
10945;SDS011;5525;42.648;23.368;2024-02-26T06:12:29;20.05;;;13.93;;
10945;SDS011;5525;42.648;23.368;2024-02-26T06:14:57;19.63;;;13.35;;
10945;SDS011;5525;42.648;23.368;2024-02-26T06:17:26;18.02;;;12.25;;
10945;SDS011;5525;42.648;23.368;2024-02-26T06:19:52;18.08;;;13.18;;
10945;SDS011;5525;42.648;23.368;2024-02-26T06:22:21;24.75;;;12.35;;
10945;SDS011;5525;42.648;23.368;2024-02-26T06:24:47;17.55;;;12.52;;
10945;SDS011;5525;42.648;23.368;2024-02-26T06:27:14;22.20;;;12.57;;
10945;SDS011;5525;42.648;23.368;2024-02-26T06:29:41;20.58;;;12.02;;
10945;SDS011;5525;42.648;23.368;2024-02-26T06:32:08;17.80;;;12.48;;
10945;SDS011;5525;42.648;23.368;2024-02-26T06:34:35;17.08;;;13.00;;
10945;SDS011;5525;42.648;23.368;2024-02-26T06:37:03;16.50;;;12.38;;
10945;SDS011;5525;42.648;23.368;2024-02-26T06:39:31;20.77;;;13.07;;
10945;SDS011;5525;42.648;23.368;2024-02-26T06:41:58;17.10;;;11.23;;
10945;SDS011;5525;42.648;23.368;2024-02-26T06:44:26;19.30;;;13.05;;
10945;SDS011;5525;42.648;23.368;2024-02-26T06:46:57;15.52;;;10.50;;
10945;SDS011;5525;42.648;23.368;2024-02-26T06:49:24;12.68;;;9.43;;
10945;SDS011;5525;42.648;23.368;2024-02-26T06:51:51;14.40;;;10.30;;
10945;SDS011;5525;42.648;23.368;2024-02-26T06:54:18;12.90;;;9.80;;
10945;SDS011;5525;42.648;23.368;2024-02-26T06:56:46;15.00;;;10.15;;
10945;SDS011;5525;42.648;23.368;2024-02-26T06:59:13;14.50;;;10.40;;
10945;SDS011;5525;42.648;23.368;2024-02-26T07:01:40;16.63;;;10.20;;
10945;SDS011;5525;42.648;23.368;2024-02-26T07:04:08;12.68;;;10.23;;
10945;SDS011;5525;42.648;23.368;2024-02-26T07:06:36;13.13;;;9.73;;
10945;SDS011;5525;42.648;23.368;2024-02-26T07:09:03;12.40;;;9.73;;
10945;SDS011;5525;42.648;23.368;2024-02-26T07:11:29;12.93;;;9.75;;
10945;SDS011;5525;42.648;23.368;2024-02-26T07:13:57;11.07;;;9.25;;
10945;SDS011;5525;42.648;23.368;2024-02-26T07:16:26;13.15;;;10.30;;
10945;SDS011;5525;42.648;23.368;2024-02-26T07:18:52;12.13;;;9.38;;
10945;SDS011;5525;42.648;23.368;2024-02-26T07:21:19;12.60;;;9.35;;
10945;SDS011;5525;42.648;23.368;2024-02-26T07:23:46;12.82;;;9.15;;
10945;SDS011;5525;42.648;23.368;2024-02-26T07:26:12;13.13;;;9.20;;
10945;SDS011;5525;42.648;23.368;2024-02-26T07:28:40;11.45;;;9.10;;
10945;SDS011;5525;42.648;23.368;2024-02-26T07:31:08;13.15;;;10.10;;
10945;SDS011;5525;42.648;23.368;2024-02-26T07:33:35;13.38;;;10.02;;
10945;SDS011;5525;42.648;23.368;2024-02-26T07:36:01;13.70;;;9.73;;
10945;SDS011;5525;42.648;23.368;2024-02-26T07:38:28;14.80;;;10.48;;
10945;SDS011;5525;42.648;23.368;2024-02-26T07:40:55;15.25;;;10.65;;
10945;SDS011;5525;42.648;23.368;2024-02-26T07:43:22;15.68;;;10.90;;
10945;SDS011;5525;42.648;23.368;2024-02-26T07:45:49;17.75;;;11.07;;
10945;SDS011;5525;42.648;23.368;2024-02-26T07:48:17;16.92;;;11.10;;
10945;SDS011;5525;42.648;23.368;2024-02-26T07:50:44;13.15;;;10.30;;
10945;SDS011;5525;42.648;23.368;2024-02-26T07:53:11;13.77;;;9.98;;
10945;SDS011;5525;42.648;23.368;2024-02-26T07:55:37;14.50;;;9.98;;
10945;SDS011;5525;42.648;23.368;2024-02-26T07:58:04;11.20;;;7.97;;
10945;SDS011;5525;42.648;23.368;2024-02-26T08:00:31;11.50;;;7.93;;
10945;SDS011;5525;42.648;23.368;2024-02-26T08:02:58;9.80;;;7.43;;
10945;SDS011;5525;42.648;23.368;2024-02-26T08:05:26;10.70;;;7.47;;
10945;SDS011;5525;42.648;23.368;2024-02-26T08:07:53;10.43;;;7.47;;
10945;SDS011;5525;42.648;23.368;2024-02-26T08:10:20;9.13;;;6.90;;
10945;SDS011;5525;42.648;23.368;2024-02-26T08:12:46;7.38;;;5.97;;
10945;SDS011;5525;42.648;23.368;2024-02-26T08:15:13;11.75;;;6.85;;
10945;SDS011;5525;42.648;23.368;2024-02-26T08:17:41;8.65;;;6.65;;
10945;SDS011;5525;42.648;23.368;2024-02-26T08:20:09;11.57;;;6.30;;
10945;SDS011;5525;42.648;23.368;2024-02-26T08:22:39;5.93;;;5.32;;
10945;SDS011;5525;42.648;23.368;2024-02-26T08:25:06;6.70;;;5.95;;
10945;SDS011;5525;42.648;23.368;2024-02-26T08:27:35;7.10;;;5.40;;
10945;SDS011;5525;42.648;23.368;2024-02-26T08:30:02;6.65;;;5.78;;
10945;SDS011;5525;42.648;23.368;2024-02-26T08:32:29;7.47;;;5.47;;
10945;SDS011;5525;42.648;23.368;2024-02-26T08:34:55;6.93;;;5.55;;
10945;SDS011;5525;42.648;23.368;2024-02-26T08:37:22;6.90;;;5.80;;
10945;SDS011;5525;42.648;23.368;2024-02-26T08:39:50;7.32;;;5.72;;
10945;SDS011;5525;42.648;23.368;2024-02-26T08:42:17;8.75;;;6.38;;
10945;SDS011;5525;42.648;23.368;2024-02-26T08:44:44;7.65;;;6.28;;
10945;SDS011;5525;42.648;23.368;2024-02-26T08:47:10;9.10;;;6.07;;
10945;SDS011;5525;42.648;23.368;2024-02-26T08:49:41;10.30;;;6.50;;
10945;SDS011;5525;42.648;23.368;2024-02-26T08:52:09;7.60;;;5.75;;
10945;SDS011;5525;42.648;23.368;2024-02-26T08:54:35;9.13;;;5.85;;
10945;SDS011;5525;42.648;23.368;2024-02-26T08:57:04;8.55;;;6.25;;
10945;SDS011;5525;42.648;23.368;2024-02-26T08:59:31;9.90;;;6.85;;
10945;SDS011;5525;42.648;23.368;2024-02-26T09:01:58;10.05;;;7.28;;
10945;SDS011;5525;42.648;23.368;2024-02-26T09:04:24;7.63;;;6.90;;
10945;SDS011;5525;42.648;23.368;2024-02-26T09:06:51;9.68;;;6.38;;
10945;SDS011;5525;42.648;23.368;2024-02-26T09:09:18;8.73;;;6.80;;
10945;SDS011;5525;42.648;23.368;2024-02-26T09:11:47;10.07;;;7.10;;
10945;SDS011;5525;42.648;23.368;2024-02-26T09:14:18;8.27;;;7.25;;
10945;SDS011;5525;42.648;23.368;2024-02-26T09:16:44;9.13;;;5.88;;
10945;SDS011;5525;42.648;23.368;2024-02-26T09:19:13;7.40;;;5.57;;
10945;SDS011;5525;42.648;23.368;2024-02-26T09:21:42;7.30;;;5.07;;
10945;SDS011;5525;42.648;23.368;2024-02-26T09:24:09;7.28;;;5.18;;
10945;SDS011;5525;42.648;23.368;2024-02-26T09:26:36;5.43;;;4.82;;
10945;SDS011;5525;42.648;23.368;2024-02-26T09:29:03;7.30;;;5.15;;
10945;SDS011;5525;42.648;23.368;2024-02-26T09:31:32;7.18;;;5.70;;
10945;SDS011;5525;42.648;23.368;2024-02-26T09:33:59;7.00;;;5.40;;
10945;SDS011;5525;42.648;23.368;2024-02-26T09:36:26;7.50;;;5.47;;
10945;SDS011;5525;42.648;23.368;2024-02-26T09:38:52;8.05;;;5.78;;
10945;SDS011;5525;42.648;23.368;2024-02-26T09:41:19;6.63;;;5.55;;
10945;SDS011;5525;42.648;23.368;2024-02-26T09:43:47;6.78;;;5.35;;
10945;SDS011;5525;42.648;23.368;2024-02-26T09:46:19;6.03;;;5.20;;
10945;SDS011;5525;42.648;23.368;2024-02-26T09:48:47;6.75;;;5.30;;
10945;SDS011;5525;42.648;23.368;2024-02-26T09:51:14;7.00;;;5.50;;
10945;SDS011;5525;42.648;23.368;2024-02-26T09:53:42;6.53;;;5.05;;
10945;SDS011;5525;42.648;23.368;2024-02-26T09:56:11;7.50;;;5.30;;
10945;SDS011;5525;42.648;23.368;2024-02-26T09:58:38;5.95;;;5.38;;
10945;SDS011;5525;42.648;23.368;2024-02-26T10:01:07;8.70;;;5.70;;
10945;SDS011;5525;42.648;23.368;2024-02-26T10:03:40;6.88;;;5.70;;
10945;SDS011;5525;42.648;23.368;2024-02-26T10:06:11;6.00;;;5.28;;
10945;SDS011;5525;42.648;23.368;2024-02-26T10:08:38;7.18;;;5.47;;
10945;SDS011;5525;42.648;23.368;2024-02-26T10:11:06;8.27;;;5.30;;
10945;SDS011;5525;42.648;23.368;2024-02-26T10:13:34;7.35;;;6.10;;
10945;SDS011;5525;42.648;23.368;2024-02-26T10:16:01;7.20;;;5.50;;
10945;SDS011;5525;42.648;23.368;2024-02-26T10:21:16;8.63;;;5.68;;
10945;SDS011;5525;42.648;23.368;2024-02-26T10:23:44;6.53;;;5.72;;
10945;SDS011;5525;42.648;23.368;2024-02-26T10:26:12;6.60;;;5.88;;
10945;SDS011;5525;42.648;23.368;2024-02-26T10:28:41;5.70;;;5.00;;
10945;SDS011;5525;42.648;23.368;2024-02-26T10:31:08;7.35;;;5.68;;
10945;SDS011;5525;42.648;23.368;2024-02-26T10:33:35;9.18;;;5.53;;
10945;SDS011;5525;42.648;23.368;2024-02-26T10:36:03;6.78;;;4.93;;
10945;SDS011;5525;42.648;23.368;2024-02-26T10:38:32;8.50;;;5.47;;
10945;SDS011;5525;42.648;23.368;2024-02-26T10:40:59;6.65;;;5.55;;
10945;SDS011;5525;42.648;23.368;2024-02-26T10:43:28;9.40;;;5.50;;
10945;SDS011;5525;42.648;23.368;2024-02-26T10:45:55;6.47;;;5.18;;
10945;SDS011;5525;42.648;23.368;2024-02-26T10:48:22;6.05;;;4.80;;
10945;SDS011;5525;42.648;23.368;2024-02-26T10:50:49;6.93;;;4.90;;
10945;SDS011;5525;42.648;23.368;2024-02-26T10:53:17;5.95;;;5.35;;
10945;SDS011;5525;42.648;23.368;2024-02-26T10:55:49;6.53;;;5.00;;
10945;SDS011;5525;42.648;23.368;2024-02-26T10:58:21;6.13;;;5.25;;
10945;SDS011;5525;42.648;23.368;2024-02-26T11:00:50;5.90;;;5.30;;
10945;SDS011;5525;42.648;23.368;2024-02-26T11:03:18;5.97;;;5.22;;
10945;SDS011;5525;42.648;23.368;2024-02-26T11:05:46;6.15;;;5.50;;
10945;SDS011;5525;42.648;23.368;2024-02-26T11:08:14;8.70;;;5.10;;
10945;SDS011;5525;42.648;23.368;2024-02-26T11:10:42;6.50;;;5.50;;
10945;SDS011;5525;42.648;23.368;2024-02-26T11:13:12;5.50;;;5.00;;
10945;SDS011;5525;42.648;23.368;2024-02-26T11:15:42;8.07;;;5.25;;
10945;SDS011;5525;42.648;23.368;2024-02-26T11:18:12;7.60;;;5.30;;
10945;SDS011;5525;42.648;23.368;2024-02-26T11:20:40;6.40;;;5.25;;
10945;SDS011;5525;42.648;23.368;2024-02-26T11:23:08;5.60;;;5.00;;
10945;SDS011;5525;42.648;23.368;2024-02-26T11:25:35;6.95;;;4.95;;
10945;SDS011;5525;42.648;23.368;2024-02-26T11:28:05;7.03;;;5.03;;
10945;SDS011;5525;42.648;23.368;2024-02-26T11:30:36;6.88;;;5.22;;
10945;SDS011;5525;42.648;23.368;2024-02-26T11:33:08;6.30;;;5.20;;
10945;SDS011;5525;42.648;23.368;2024-02-26T11:35:37;5.97;;;5.07;;
10945;SDS011;5525;42.648;23.368;2024-02-26T11:38:04;6.15;;;4.85;;
10945;SDS011;5525;42.648;23.368;2024-02-26T11:40:32;5.43;;;4.70;;
10945;SDS011;5525;42.648;23.368;2024-02-26T11:43:00;5.72;;;4.88;;
10945;SDS011;5525;42.648;23.368;2024-02-26T11:48:24;6.53;;;4.63;;
10945;SDS011;5525;42.648;23.368;2024-02-26T11:50:52;7.70;;;4.80;;
10945;SDS011;5525;42.648;23.368;2024-02-26T11:53:23;6.20;;;4.60;;
10945;SDS011;5525;42.648;23.368;2024-02-26T11:58:46;4.70;;;4.18;;
10945;SDS011;5525;42.648;23.368;2024-02-26T12:04:06;5.43;;;4.25;;
10945;SDS011;5525;42.648;23.368;2024-02-26T12:06:39;5.72;;;4.40;;
10945;SDS011;5525;42.648;23.368;2024-02-26T12:09:08;4.93;;;4.38;;
10945;SDS011;5525;42.648;23.368;2024-02-26T12:11:37;6.80;;;4.45;;
10945;SDS011;5525;42.648;23.368;2024-02-26T12:14:05;5.20;;;4.55;;
10945;SDS011;5525;42.648;23.368;2024-02-26T12:16:36;6.72;;;4.20;;
10945;SDS011;5525;42.648;23.368;2024-02-26T12:19:08;6.60;;;4.32;;
10945;SDS011;5525;42.648;23.368;2024-02-26T12:21:36;5.28;;;4.38;;
10945;SDS011;5525;42.648;23.368;2024-02-26T12:24:07;6.15;;;4.68;;
10945;SDS011;5525;42.648;23.368;2024-02-26T12:26:36;7.68;;;4.78;;
10945;SDS011;5525;42.648;23.368;2024-02-26T12:29:03;5.07;;;4.20;;
10945;SDS011;5525;42.648;23.368;2024-02-26T12:31:30;5.13;;;4.05;;
10945;SDS011;5525;42.648;23.368;2024-02-26T12:33:59;4.05;;;3.65;;
10945;SDS011;5525;42.648;23.368;2024-02-26T12:36:26;5.93;;;4.50;;
10945;SDS011;5525;42.648;23.368;2024-02-26T12:38:54;6.35;;;3.92;;
10945;SDS011;5525;42.648;23.368;2024-02-26T12:41:21;6.30;;;4.38;;
10945;SDS011;5525;42.648;23.368;2024-02-26T12:43:49;6.78;;;4.13;;
10945;SDS011;5525;42.648;23.368;2024-02-26T12:46:16;4.68;;;3.78;;
10945;SDS011;5525;42.648;23.368;2024-02-26T12:48:42;6.80;;;4.85;;
10945;SDS011;5525;42.648;23.368;2024-02-26T12:51:11;4.65;;;3.90;;
10945;SDS011;5525;42.648;23.368;2024-02-26T12:53:41;5.95;;;4.32;;
10945;SDS011;5525;42.648;23.368;2024-02-26T12:56:09;4.63;;;4.05;;
10945;SDS011;5525;42.648;23.368;2024-02-26T12:58:37;4.55;;;3.90;;
10945;SDS011;5525;42.648;23.368;2024-02-26T13:01:15;4.93;;;3.88;;
10945;SDS011;5525;42.648;23.368;2024-02-26T13:03:44;4.75;;;3.80;;
10945;SDS011;5525;42.648;23.368;2024-02-26T13:06:15;5.93;;;4.07;;
10945;SDS011;5525;42.648;23.368;2024-02-26T13:08:43;4.55;;;3.65;;
10945;SDS011;5525;42.648;23.368;2024-02-26T13:11:12;7.78;;;3.85;;
10945;SDS011;5525;42.648;23.368;2024-02-26T13:13:47;4.70;;;3.97;;
10945;SDS011;5525;42.648;23.368;2024-02-26T13:16:16;7.85;;;4.10;;
10945;SDS011;5525;42.648;23.368;2024-02-26T13:18:43;6.38;;;4.32;;
10945;SDS011;5525;42.648;23.368;2024-02-26T13:21:13;3.97;;;3.40;;
10945;SDS011;5525;42.648;23.368;2024-02-26T13:23:42;5.97;;;3.80;;
10945;SDS011;5525;42.648;23.368;2024-02-26T13:26:11;5.97;;;3.42;;
10945;SDS011;5525;42.648;23.368;2024-02-26T13:28:39;5.20;;;3.60;;
10945;SDS011;5525;42.648;23.368;2024-02-26T13:31:06;7.03;;;3.60;;
10945;SDS011;5525;42.648;23.368;2024-02-26T13:33:34;6.03;;;3.88;;
10945;SDS011;5525;42.648;23.368;2024-02-26T13:36:02;6.10;;;3.55;;
10945;SDS011;5525;42.648;23.368;2024-02-26T13:38:31;5.50;;;3.97;;
10945;SDS011;5525;42.648;23.368;2024-02-26T13:40:58;4.60;;;3.95;;
10945;SDS011;5525;42.648;23.368;2024-02-26T13:43:25;5.95;;;3.60;;
10945;SDS011;5525;42.648;23.368;2024-02-26T13:45:52;3.65;;;3.30;;
10945;SDS011;5525;42.648;23.368;2024-02-26T13:48:18;5.22;;;3.50;;
10945;SDS011;5525;42.648;23.368;2024-02-26T13:50:45;5.57;;;3.92;;
10945;SDS011;5525;42.648;23.368;2024-02-26T13:53:12;4.60;;;3.85;;
10945;SDS011;5525;42.648;23.368;2024-02-26T13:55:41;5.72;;;3.65;;
10945;SDS011;5525;42.648;23.368;2024-02-26T13:58:08;5.53;;;3.85;;
10945;SDS011;5525;42.648;23.368;2024-02-26T14:00:38;4.93;;;3.47;;
10945;SDS011;5525;42.648;23.368;2024-02-26T14:03:06;7.53;;;3.83;;
10945;SDS011;5525;42.648;23.368;2024-02-26T14:05:33;6.55;;;3.80;;
10945;SDS011;5525;42.648;23.368;2024-02-26T14:08:00;5.03;;;3.40;;
10945;SDS011;5525;42.648;23.368;2024-02-26T14:10:26;5.85;;;4.15;;
10945;SDS011;5525;42.648;23.368;2024-02-26T14:12:55;5.90;;;3.65;;
10945;SDS011;5525;42.648;23.368;2024-02-26T14:15:21;5.30;;;3.67;;
10945;SDS011;5525;42.648;23.368;2024-02-26T14:17:49;5.88;;;3.42;;
10945;SDS011;5525;42.648;23.368;2024-02-26T14:20:19;7.20;;;3.67;;
10945;SDS011;5525;42.648;23.368;2024-02-26T14:22:46;5.50;;;3.33;;
10945;SDS011;5525;42.648;23.368;2024-02-26T14:25:13;4.78;;;3.42;;
10945;SDS011;5525;42.648;23.368;2024-02-26T14:27:40;4.13;;;3.45;;
10945;SDS011;5525;42.648;23.368;2024-02-26T14:30:08;3.78;;;3.30;;
10945;SDS011;5525;42.648;23.368;2024-02-26T14:32:36;5.93;;;3.50;;
10945;SDS011;5525;42.648;23.368;2024-02-26T14:35:03;6.47;;;3.30;;
10945;SDS011;5525;42.648;23.368;2024-02-26T14:37:33;5.82;;;3.47;;
10945;SDS011;5525;42.648;23.368;2024-02-26T14:39:59;5.53;;;3.05;;
10945;SDS011;5525;42.648;23.368;2024-02-26T14:42:27;4.82;;;3.35;;
10945;SDS011;5525;42.648;23.368;2024-02-26T14:44:54;7.45;;;3.42;;
10945;SDS011;5525;42.648;23.368;2024-02-26T14:47:23;4.88;;;3.45;;
10945;SDS011;5525;42.648;23.368;2024-02-26T14:49:50;5.28;;;3.08;;